Time;durP1;ratioP1;P1;durP2;ratioP2;P2;SDS_P1;SDS_P2;PMS_P1;PMS_P2;Temp;Humidity;BMP_temperature;BMP_pressure;BME280_temperature;BME280_humidity;BME280_pressure;Samples;Min_cycle;Max_cycle;Signal;HPM_P1;HPM_P2
2023/03/27 00:02:00;;;;;;;;;;;;;;;;;;5071086;28;19918;-40
2023/03/27 00:04:27;;;;;;;;;;;;;;;;;;5053628;28;20259;-39
2023/03/27 00:06:54;;;;;;;;;;;;;;;;;;5071473;28;20682;-40
2023/03/27 00:09:20;;;;;;;;;;;;;;;;;;5071411;28;20392;-39
2023/03/27 00:11:47;;;;;;;;;;;;;;;;;;5070908;28;19919;-39
2023/03/27 00:14:13;;;;;;;;;;;;;;;;;;5071509;28;19920;-40
2023/03/27 00:16:39;;;;;;;;;;;;;;;;;;5068942;28;19915;-39
2023/03/27 00:19:06;;;;;;;;;;;;;;;;;;5067153;28;19919;-39
2023/03/27 00:21:33;;;;;;;;;;;;;;;;;;5064057;28;19923;-40
2023/03/27 00:23:59;;;;;;;;;;;;;;;;;;5063635;28;19965;-40
2023/03/27 00:26:29;;;;;;;;;;;;;;;;;;5059214;28;19932;-40
2023/03/27 00:28:55;;;;;;;;;;;;;;;;;;5061245;28;19956;-40
2023/03/27 00:31:22;;;;;;;;;;;;;;;;;;5063268;28;19908;-39
2023/03/27 00:33:48;;;;;;;;;;;;;;;;;;5070458;28;19908;-39
2023/03/27 00:36:15;;;;;;;;;;;;;;;;;;5052647;28;19912;-40
2023/03/27 00:38:42;;;;;;;;;;;;;;;;;;5068003;28;19916;-40
2023/03/27 00:41:09;;;;;;;;;;;;;;;;;;5070400;28;19956;-40
2023/03/27 00:43:35;;;;;;;;;;;;;;;;;;5070596;28;19914;-40
2023/03/27 00:46:01;;;;;;;;;;;;;;;;;;5069314;28;20363;-40
2023/03/27 00:48:28;;;;;;;;;;;;;;;;;;5069369;28;20388;-40
2023/03/27 00:50:55;;;;;;;;;;;;;;;;;;5069588;28;20007;-40
2023/03/27 00:53:21;;;;;;;;;;;;;;;;;;5070114;28;20355;-40
2023/03/27 00:55:48;;;;;;;;;;;;;;;;;;5068392;28;20285;-40
2023/03/27 00:58:14;;;;;;;;;;;;;;;;;;5069699;28;19999;-40
2023/03/27 01:00:40;;;;;;;;;;;;;;;;;;5071357;28;19916;-40
2023/03/27 01:03:07;;;;;;;;;;;;;;;;;;5067475;28;19912;-40
2023/03/27 01:05:34;;;;;;;;;;;;;;;;;;5072566;28;20780;-40
2023/03/27 01:08:00;;;;;;;;;;;;;;;;;;5046890;28;20452;-40
2023/03/27 01:10:27;;;;;;;;;;;;;;;;;;5074224;28;19940;-39
2023/03/27 01:12:53;;;;;;;;;;;;;;;;;;5055958;28;19909;-38
2023/03/27 01:15:19;;;;;;;;;;;;;;;;;;5072084;28;20024;-42
2023/03/27 01:17:46;;;;;;;;;;;;;;;;;;5072818;28;20385;-40
2023/03/27 01:20:13;;;;;;;;;;;;;;;;;;5071994;28;20385;-38
2023/03/27 01:22:39;;;;;;;;;;;;;;;;;;5071283;28;19916;-44
2023/03/27 01:25:09;;;;;;;;;;;;;;;;;;5069653;28;19912;-41
2023/03/27 01:27:36;;;;;;;;;;;;;;;;;;5069606;28;19913;-39
2023/03/27 01:30:03;;;;;;;;;;;;;;;;;;5062370;28;19971;-41
2023/03/27 01:32:29;;;;;;;;;;;;;;;;;;5068082;28;19916;-40
2023/03/27 01:34:56;;;;;;;;;;;;;;;;;;5063372;28;19912;-40
2023/03/27 01:37:23;;;;;;;;;;;;;;;;;;5064362;28;20293;-39
2023/03/27 01:39:50;;;;;;;;;;;;;;;;;;5063726;28;19922;-39
2023/03/27 01:42:17;;;;;;;;;;;;;;;;;;5067600;28;20293;-40
2023/03/27 01:44:43;;;;;;;;;;;;;;;;;;5066161;28;19918;-38
2023/03/27 01:47:10;;;;;;;;;;;;;;;;;;5070802;28;19935;-41
2023/03/27 01:49:38;;;;;;;;;;;;;;;;;;5069801;28;19912;-39
2023/03/27 01:52:05;;;;;;;;;;;;;;;;;;5073384;28;19957;-39
2023/03/27 01:54:32;;;;;;;;;;;;;;;;;;5073616;28;19919;-37
2023/03/27 01:57:00;;;;;;;;;;;;;;;;;;5073842;28;20499;-37
2023/03/27 01:59:27;;;;;;;;;;;;;;;;;;5073414;28;19948;-37
2023/03/27 02:01:53;;;;;;;;;;;;;;;;;;5073692;28;20444;-37
2023/03/27 02:04:20;;;;;;;;;;;;;;;;;;5065895;28;19920;-38
2023/03/27 02:06:46;;;;;;;;;;;;;;;;;;5068516;28;20012;-38
2023/03/27 02:09:13;;;;;;;;;;;;;;;;;;5073397;28;19912;-38
2023/03/27 02:11:39;;;;;;;;;;;;;;;;;;5072597;28;19909;-38
2023/03/27 02:14:06;;;;;;;;;;;;;;;;;;5073317;28;19912;-37
2023/03/27 02:16:32;;;;;;;;;;;;;;;;;;5073516;28;19967;-38
2023/03/27 02:19:02;;;;;;;;;;;;;;;;;;5073261;28;20342;-38
2023/03/27 02:21:30;;;;;;;;;;;;;;;;;;5073283;28;19933;-37
2023/03/27 02:24:00;;;;;;;;;;;;;;;;;;5073492;28;19920;-37
2023/03/27 02:26:27;;;;;;;;;;;;;;;;;;5073351;28;19912;-38
2023/03/27 02:28:53;;;;;;;;;;;;;;;;;;5073287;28;19943;-38
2023/03/27 02:31:19;;;;;;;;;;;;;;;;;;5073295;28;19918;-38
2023/03/27 02:33:46;;;;;;;;;;;;;;;;;;5073315;28;19908;-37
2023/03/27 02:36:13;;;;;;;;;;;;;;;;;;5073342;28;19998;-38
2023/03/27 02:38:40;;;;;;;;;;;;;;;;;;5073098;28;19912;-37
2023/03/27 02:41:07;;;;;;;;;;;;;;;;;;5055119;28;20301;-37
2023/03/27 02:43:33;;;;;;;;;;;;;;;;;;5073090;28;19908;-38
2023/03/27 02:45:59;;;;;;;;;;;;;;;;;;5073163;28;19927;-37
2023/03/27 02:48:26;;;;;;;;;;;;;;;;;;5073052;28;19911;-38
2023/03/27 02:50:53;;;;;;;;;;;;;;;;;;5072865;28;19904;-38
2023/03/27 02:53:19;;;;;;;;;;;;;;;;;;5072941;28;20054;-37
2023/03/27 02:55:46;;;;;;;;;;;;;;;;;;5072756;28;19915;-37
2023/03/27 02:58:12;;;;;;;;;;;;;;;;;;5072777;28;19900;-37
2023/03/27 03:00:40;;;;;;;;;;;;;;;;;;5072954;28;19924;-38
2023/03/27 03:03:07;;;;;;;;;;;;;;;;;;5072691;28;19915;-37
2023/03/27 03:05:36;;;;;;;;;;;;;;;;;;5072728;28;19970;-37
2023/03/27 03:08:02;;;;;;;;;;;;;;;;;;5072595;28;20358;-38
2023/03/27 03:10:28;;;;;;;;;;;;;;;;;;5072798;28;19908;-38
2023/03/27 03:12:55;;;;;;;;;;;;;;;;;;5072574;28;19904;-37
2023/03/27 03:15:21;;;;;;;;;;;;;;;;;;5072696;28;19908;-38
2023/03/27 03:17:48;;;;;;;;;;;;;;;;;;5072432;28;19908;-37
2023/03/27 03:20:15;;;;;;;;;;;;;;;;;;5072351;28;20369;-37
2023/03/27 03:22:41;;;;;;;;;;;;;;;;;;5072137;28;19904;-37
2023/03/27 03:25:09;;;;;;;;;;;;;;;;;;5072405;28;19915;-37
2023/03/27 03:27:35;;;;;;;;;;;;;;;;;;5072259;28;19904;-37
2023/03/27 03:30:03;;;;;;;;;;;;;;;;;;5072416;28;19916;-38
2023/03/27 03:32:29;;;;;;;;;;;;;;;;;;5072242;28;19962;-37
2023/03/27 03:34:56;;;;;;;;;;;;;;;;;;5072321;28;19904;-37
2023/03/27 03:37:27;;;;;;;;;;;;;;;;;;5072348;28;19911;-37
2023/03/27 03:39:54;;;;;;;;;;;;;;;;;;5071972;28;19916;-38
2023/03/27 03:42:20;;;;;;;;;;;;;;;;;;5072198;28;19912;-37
2023/03/27 03:44:47;;;;;;;;;;;;;;;;;;5072042;28;19963;-37
2023/03/27 03:47:13;;;;;;;;;;;;;;;;;;5072255;28;20380;-37
2023/03/27 03:49:39;;;;;;;;;;;;;;;;;;5072125;28;19928;-39
2023/03/27 03:52:07;;;;;;;;;;;;;;;;;;5072187;28;20003;-39
2023/03/27 03:54:33;;;;;;;;;;;;;;;;;;5072037;28;19905;-39
2023/03/27 03:56:59;;;;;;;;;;;;;;;;;;5071950;28;19908;-39
2023/03/27 03:59:26;;;;;;;;;;;;;;;;;;5072038;28;19905;-38
2023/03/27 04:01:52;;;;;;;;;;;;;;;;;;5071927;28;19966;-39
2023/03/27 04:04:19;;;;;;;;;;;;;;;;;;5072123;28;19995;-39
2023/03/27 04:06:45;;;;;;;;;;;;;;;;;;5071902;28;19999;-39
2023/03/27 04:09:12;;;;;;;;;;;;;;;;;;5072012;28;19928;-39
2023/03/27 04:11:38;;;;;;;;;;;;;;;;;;5071946;28;19931;-38
2023/03/27 04:14:05;;;;;;;;;;;;;;;;;;5071901;28;19962;-42
2023/03/27 04:16:31;;;;;;;;;;;;;;;;;;5071843;28;19951;-39
2023/03/27 04:18:59;;;;;;;;;;;;;;;;;;5071716;28;19904;-39
2023/03/27 04:21:26;;;;;;;;;;;;;;;;;;5071549;28;19920;-39
2023/03/27 04:23:52;;;;;;;;;;;;;;;;;;5071924;28;19908;-39
2023/03/27 04:26:25;;;;;;;;;;;;;;;;;;5071913;28;19950;-39
2023/03/27 04:28:51;;;;;;;;;;;;;;;;;;5071557;28;19961;-39
2023/03/27 04:31:17;;;;;;;;;;;;;;;;;;5071587;28;20385;-39
2023/03/27 04:33:50;;;;;;;;;;;;;;;;;;5071647;28;19908;-39
2023/03/27 04:36:17;;;;;;;;;;;;;;;;;;5073925;28;19916;-39
2023/03/27 04:38:44;;;;;;;;;;;;;;;;;;5075489;28;20426;-39
2023/03/27 04:41:10;;;;;;;;;;;;;;;;;;5075539;28;20015;-39
2023/03/27 04:43:38;;;;;;;;;;;;;;;;;;5075564;28;19987;-39
2023/03/27 04:46:08;;;;;;;;;;;;;;;;;;5075379;28;19911;-38
2023/03/27 04:48:37;;;;;;;;;;;;;;;;;;5075277;28;20297;-39
2023/03/27 04:51:03;;;;;;;;;;;;;;;;;;5075292;28;19911;-38
2023/03/27 04:53:31;;;;;;;;;;;;;;;;;;5075333;28;20358;-39
2023/03/27 04:55:57;;;;;;;;;;;;;;;;;;5075071;28;19950;-39
2023/03/27 04:58:24;;;;;;;;;;;;;;;;;;5075145;28;19904;-39
2023/03/27 05:00:51;;;;;;;;;;;;;;;;;;5075058;28;19935;-39
2023/03/27 05:03:17;;;;;;;;;;;;;;;;;;5075176;28;20003;-39
2023/03/27 05:05:44;;;;;;;;;;;;;;;;;;5075052;28;19947;-39
2023/03/27 05:08:10;;;;;;;;;;;;;;;;;;5075073;28;19912;-39
2023/03/27 05:10:37;;;;;;;;;;;;;;;;;;5074896;28;20350;-39
2023/03/27 05:13:03;;;;;;;;;;;;;;;;;;5074966;28;19912;-39
2023/03/27 05:15:32;;;;;;;;;;;;;;;;;;5075078;28;19904;-38
2023/03/27 05:17:59;;;;;;;;;;;;;;;;;;5074628;28;19995;-39
2023/03/27 05:20:25;;;;;;;;;;;;;;;;;;5074740;28;20325;-39
2023/03/27 05:22:52;;;;;;;;;;;;;;;;;;5074957;28;19916;-38
2023/03/27 05:25:19;;;;;;;;;;;;;;;;;;5074667;28;20366;-38
2023/03/27 05:27:45;;;;;;;;;;;;;;;;;;5074580;28;19911;-39
2023/03/27 05:30:11;;;;;;;;;;;;;;;;;;5074687;28;20010;-38
2023/03/27 05:32:38;;;;;;;;;;;;;;;;;;5074653;28;19905;-39
2023/03/27 05:35:04;;;;;;;;;;;;;;;;;;5074694;28;20390;-38
2023/03/27 05:37:31;;;;;;;;;;;;;;;;;;5074445;28;19956;-41
2023/03/27 05:39:58;;;;;;;;;;;;;;;;;;5074229;28;20439;-39
2023/03/27 05:42:24;;;;;;;;;;;;;;;;;;5074278;28;20361;-39
2023/03/27 05:44:50;;;;;;;;;;;;;;;;;;5074506;28;19904;-39
2023/03/27 05:47:19;;;;;;;;;;;;;;;;;;5074157;28;19910;-39
2023/03/27 05:49:45;;;;;;;;;;;;;;;;;;5074139;28;19905;-39
2023/03/27 05:52:12;;;;;;;;;;;;;;;;;;5074306;28;19961;-39
2023/03/27 05:54:39;;;;;;;;;;;;;;;;;;5074334;28;19912;-37
2023/03/27 05:57:06;;;;;;;;;;;;;;;;;;5074126;28;19908;-38
2023/03/27 05:59:33;;;;;;;;;;;;;;;;;;5073982;28;19904;-38
2023/03/27 06:01:59;;;;;;;;;;;;;;;;;;5070508;28;20321;-38
2023/03/27 06:04:27;;;;;;;;;;;;;;;;;;5074138;28;20003;-38
2023/03/27 06:06:54;;;;;;;;;;;;;;;;;;5073856;28;19924;-38
2023/03/27 06:09:20;;;;;;;;;;;;;;;;;;5073819;28;19908;-37
2023/03/27 06:11:46;;;;;;;;;;;;;;;;;;5073946;28;20025;-38
2023/03/27 06:14:13;;;;;;;;;;;;;;;;;;5073867;28;19905;-39
2023/03/27 06:16:39;;;;;;;;;;;;;;;;;;5073820;28;20342;-39
2023/03/27 06:19:06;;;;;;;;;;;;;;;;;;5073845;28;19904;-39
2023/03/27 06:21:32;;;;;;;;;;;;;;;;;;5073702;28;19916;-39
2023/03/27 06:23:58;;;;;;;;;;;;;;;;;;5073727;28;20006;-39
2023/03/27 06:26:27;;;;;;;;;;;;;;;;;;5073518;28;19908;-40
2023/03/27 06:28:54;;;;;;;;;;;;;;;;;;5073495;28;19923;-39
2023/03/27 06:31:20;;;;;;;;;;;;;;;;;;5073804;28;19904;-39
2023/03/27 06:33:47;;;;;;;;;;;;;;;;;;5072931;28;19911;-39
2023/03/27 06:36:14;;;;;;;;;;;;;;;;;;5073305;28;19961;-38
2023/03/27 06:38:40;;;;;;;;;;;;;;;;;;5073215;28;19916;-38
2023/03/27 06:41:07;;;;;;;;;;;;;;;;;;5073253;28;19920;-38
2023/03/27 06:43:33;;;;;;;;;;;;;;;;;;5073121;28;19911;-38
2023/03/27 06:46:00;;;;;;;;;;;;;;;;;;5073221;28;19904;-38
2023/03/27 06:48:26;;;;;;;;;;;;;;;;;;5073152;28;19926;-38
2023/03/27 06:50:52;;;;;;;;;;;;;;;;;;5073156;28;20333;-38
2023/03/27 06:53:19;;;;;;;;;;;;;;;;;;5073125;28;19915;-38
2023/03/27 06:55:45;;;;;;;;;;;;;;;;;;5072885;28;19904;-37
2023/03/27 06:58:12;;;;;;;;;;;;;;;;;;5072386;28;19908;-38
2023/03/27 07:00:39;;;;;;;;;;;;;;;;;;5072844;28;19912;-37
2023/03/27 07:03:07;;;;;;;;;;;;;;;;;;5072790;28;19904;-39
2023/03/27 07:05:35;;;;;;;;;;;;;;;;;;5072747;28;20063;-39
2023/03/27 07:08:01;;;;;;;;;;;;;;;;;;5072680;28;20373;-37
2023/03/27 07:10:28;;;;;;;;;;;;;;;;;;5072906;28;19905;-37
2023/03/27 07:12:54;;;;;;;;;;;;;;;;;;5072742;28;19957;-38
2023/03/27 07:15:21;;;;;;;;;;;;;;;;;;5072551;28;20324;-39
2023/03/27 07:17:47;;;;;;;;;;;;;;;;;;5072427;28;19904;-37
2023/03/27 07:20:13;;;;;;;;;;;;;;;;;;5072533;28;20312;-38
2023/03/27 07:22:41;;;;;;;;;;;;;;;;;;5072454;28;19919;-37
2023/03/27 07:25:08;;;;;;;;;;;;;;;;;;5054553;28;20050;-38
2023/03/27 07:27:34;;;;;;;;;;;;;;;;;;5072461;28;19913;-38
2023/03/27 07:30:01;;;;;;;;;;;;;;;;;;5072515;28;19908;-38
2023/03/27 07:32:31;;;;;;;;;;;;;;;;;;5072218;28;19905;-38
2023/03/27 07:34:57;;;;;;;;;;;;;;;;;;5072292;28;19912;-37
2023/03/27 07:37:24;;;;;;;;;;;;;;;;;;5054240;28;20336;-38
2023/03/27 07:39:51;;;;;;;;;;;;;;;;;;5072131;28;19978;-37
2023/03/27 07:42:18;;;;;;;;;;;;;;;;;;5072047;28;19916;-38
2023/03/27 07:44:44;;;;;;;;;;;;;;;;;;5072159;28;19915;-37
2023/03/27 07:47:11;;;;;;;;;;;;;;;;;;5072019;28;19908;-38
2023/03/27 07:49:37;;;;;;;;;;;;;;;;;;5072252;28;19908;-38
2023/03/27 07:52:04;;;;;;;;;;;;;;;;;;5072377;28;20292;-37
2023/03/27 07:54:30;;;;;;;;;;;;;;;;;;5072163;28;19904;-38
2023/03/27 07:56:57;;;;;;;;;;;;;;;;;;5072097;28;19908;-39
2023/03/27 07:59:23;;;;;;;;;;;;;;;;;;5072189;28;19961;-41
2023/03/27 08:01:49;;;;;;;;;;;;;;;;;;5071877;28;19951;-39
2023/03/27 08:04:16;;;;;;;;;;;;;;;;;;5072100;28;19908;-39
2023/03/27 08:06:42;;;;;;;;;;;;;;;;;;5071928;28;19934;-39
2023/03/27 08:09:09;;;;;;;;;;;;;;;;;;5071680;28;19908;-39
2023/03/27 08:11:40;;;;;;;;;;;;;;;;;;5071303;28;19911;-40
2023/03/27 08:14:06;;;;;;;;;;;;;;;;;;5071684;28;20361;-40
2023/03/27 08:16:32;;;;;;;;;;;;;;;;;;5071776;28;19912;-39
2023/03/27 08:19:01;;;;;;;;;;;;;;;;;;5071786;28;20005;-39
2023/03/27 08:21:27;;;;;;;;;;;;;;;;;;5071663;28;19920;-39
2023/03/27 08:23:54;;;;;;;;;;;;;;;;;;5071782;28;19993;-40
2023/03/27 08:26:20;;;;;;;;;;;;;;;;;;5071606;28;20277;-39
2023/03/27 08:28:47;;;;;;;;;;;;;;;;;;5071405;28;19909;-38
2023/03/27 08:31:13;;;;;;;;;;;;;;;;;;5071630;28;19904;-38
2023/03/27 08:33:40;;;;;;;;;;;;;;;;;;5071731;28;19999;-37
2023/03/27 08:36:07;;;;;;;;;;;;;;;;;;5071499;28;19905;-38
2023/03/27 08:38:33;;;;;;;;;;;;;;;;;;5071655;28;19920;-38
2023/03/27 08:40:59;;;;;;;;;;;;;;;;;;5071633;28;19916;-38
2023/03/27 08:43:26;;;;;;;;;;;;;;;;;;5071657;28;19905;-37
2023/03/27 08:45:52;;;;;;;;;;;;;;;;;;5071622;28;19983;-38
2023/03/27 08:48:20;;;;;;;;;;;;;;;;;;5071499;28;19995;-38
2023/03/27 08:50:47;;;;;;;;;;;;;;;;;;5071481;28;19904;-38
2023/03/27 08:53:13;;;;;;;;;;;;;;;;;;5071600;28;19908;-39
2023/03/27 08:55:40;;;;;;;;;;;;;;;;;;5071615;28;19904;-38
2023/03/27 08:58:06;;;;;;;;;;;;;;;;;;5071369;28;19912;-38
2023/03/27 09:00:34;;;;;;;;;;;;;;;;;;5071347;28;19905;-39
2023/03/27 09:03:00;;;;;;;;;;;;;;;;;;5071333;28;19954;-39
2023/03/27 09:05:27;;;;;;;;;;;;;;;;;;5071472;28;19918;-39
2023/03/27 09:07:55;;;;;;;;;;;;;;;;;;5071360;28;19931;-39
2023/03/27 09:10:22;;;;;;;;;;;;;;;;;;5071254;28;19915;-39
2023/03/27 09:12:48;;;;;;;;;;;;;;;;;;5071354;28;20281;-39
2023/03/27 09:15:15;;;;;;;;;;;;;;;;;;5064159;28;19923;-39
2023/03/27 09:17:41;;;;;;;;;;;;;;;;;;5051234;28;19912;-40
2023/03/27 09:20:08;;;;;;;;;;;;;;;;;;5051319;28;19964;-39
2023/03/27 09:22:35;;;;;;;;;;;;;;;;;;5057175;28;20293;-39
2023/03/27 09:25:02;;;;;;;;;;;;;;;;;;5058425;28;19927;-37
2023/03/27 09:27:28;;;;;;;;;;;;;;;;;;5054588;28;20325;-39
2023/03/27 09:29:54;;;;;;;;;;;;;;;;;;5060317;28;20035;-39
2023/03/27 09:32:21;;;;;;;;;;;;;;;;;;5064049;28;19937;-38
2023/03/27 09:34:48;;;;;;;;;;;;;;;;;;5063240;28;19916;-39
2023/03/27 09:37:15;;;;;;;;;;;;;;;;;;5062442;28;19920;-38
2023/03/27 09:39:41;;;;;;;;;;;;;;;;;;5062439;28;19970;-39
2023/03/27 09:42:09;;;;;;;;;;;;;;;;;;5064313;28;19923;-39
2023/03/27 09:44:36;;;;;;;;;;;;;;;;;;5060712;28;19913;-38
2023/03/27 09:47:03;;;;;;;;;;;;;;;;;;5073866;28;20370;-38
2023/03/27 09:49:29;;;;;;;;;;;;;;;;;;5055483;28;19998;-38
2023/03/27 09:51:57;;;;;;;;;;;;;;;;;;5074319;28;20024;-37
2023/03/27 09:54:23;;;;;;;;;;;;;;;;;;5073901;28;19913;-37
2023/03/27 09:56:50;;;;;;;;;;;;;;;;;;5074206;28;19909;-38
2023/03/27 09:59:17;;;;;;;;;;;;;;;;;;5073975;28;20289;-38
2023/03/27 10:01:43;;;;;;;;;;;;;;;;;;5073856;28;19967;-38
2023/03/27 10:04:10;;;;;;;;;;;;;;;;;;5073932;28;20369;-38
2023/03/27 10:06:40;;;;;;;;;;;;;;;;;;5073969;28;20397;-39
2023/03/27 10:09:06;;;;;;;;;;;;;;;;;;5073819;28;19904;-38
2023/03/27 10:11:34;;;;;;;;;;;;;;;;;;5073737;28;19904;-37
2023/03/27 10:14:00;;;;;;;;;;;;;;;;;;5073787;28;20000;-38
2023/03/27 10:16:27;;;;;;;;;;;;;;;;;;5073841;28;19915;-38
2023/03/27 10:18:54;;;;;;;;;;;;;;;;;;5073769;28;19908;-38
2023/03/27 10:21:20;;;;;;;;;;;;;;;;;;5073501;28;19997;-38
2023/03/27 10:23:48;;;;;;;;;;;;;;;;;;5073543;28;19910;-39
2023/03/27 10:26:15;;;;;;;;;;;;;;;;;;5073366;28;19951;-38
2023/03/27 10:28:43;;;;;;;;;;;;;;;;;;5073732;28;19909;-38
2023/03/27 10:31:12;;;;;;;;;;;;;;;;;;5073472;28;19912;-38
2023/03/27 10:33:39;;;;;;;;;;;;;;;;;;5072442;28;19904;-37
2023/03/27 10:36:05;;;;;;;;;;;;;;;;;;5073258;28;19954;-37
2023/03/27 10:38:32;;;;;;;;;;;;;;;;;;5073304;28;19917;-37
2023/03/27 10:40:59;;;;;;;;;;;;;;;;;;5073373;28;19973;-38
2023/03/27 10:43:25;;;;;;;;;;;;;;;;;;5073163;28;19986;-38
2023/03/27 10:45:52;;;;;;;;;;;;;;;;;;5070935;28;20356;-39
2023/03/27 10:48:18;;;;;;;;;;;;;;;;;;5053169;28;19905;-38
2023/03/27 10:50:44;;;;;;;;;;;;;;;;;;5053281;28;20018;-37
2023/03/27 10:53:11;;;;;;;;;;;;;;;;;;5053195;28;19904;-37
2023/03/27 10:55:40;;;;;;;;;;;;;;;;;;5043516;28;20008;-41
2023/03/27 10:58:07;;;;;;;;;;;;;;;;;;5052604;28;19962;-40
2023/03/27 11:00:33;;;;;;;;;;;;;;;;;;5058687;28;19908;-39
2023/03/27 11:03:00;;;;;;;;;;;;;;;;;;5064191;28;19908;-42
2023/03/27 11:05:26;;;;;;;;;;;;;;;;;;5069499;28;19912;-42
2023/03/27 11:07:53;;;;;;;;;;;;;;;;;;5071201;28;19908;-42
2023/03/27 11:10:19;;;;;;;;;;;;;;;;;;5071442;28;19912;-39
2023/03/27 11:12:45;;;;;;;;;;;;;;;;;;5069562;28;19995;-51
2023/03/27 11:15:12;;;;;;;;;;;;;;;;;;5063916;28;20290;-40
2023/03/27 11:17:39;;;;;;;;;;;;;;;;;;5072407;28;20381;-43
2023/03/27 11:20:10;;;;;;;;;;;;;;;;;;5071808;28;19907;-40
2023/03/27 11:22:36;;;;;;;;;;;;;;;;;;5070187;28;19924;-40
2023/03/27 11:25:04;;;;;;;;;;;;;;;;;;5064202;28;20542;-40
2023/03/27 11:27:31;;;;;;;;;;;;;;;;;;5067776;28;19908;-43
2023/03/27 11:29:57;;;;;;;;;;;;;;;;;;5071203;28;19909;-45
2023/03/27 11:32:24;;;;;;;;;;;;;;;;;;5071363;28;19908;-45
2023/03/27 11:34:51;;;;;;;;;;;;;;;;;;5068534;28;19905;-42
2023/03/27 11:37:18;;;;;;;;;;;;;;;;;;5066677;28;19916;-41
2023/03/27 11:39:44;;;;;;;;;;;;;;;;;;5069910;28;19931;-42
2023/03/27 11:42:11;;;;;;;;;;;;;;;;;;5071391;28;19920;-42
2023/03/27 11:44:37;;;;;;;;;;;;;;;;;;5067155;28;20479;-44
2023/03/27 11:47:03;;;;;;;;;;;;;;;;;;5068951;28;19912;-40
2023/03/27 11:49:30;;;;;;;;;;;;;;;;;;5063980;28;19931;-44
2023/03/27 11:51:56;;;;;;;;;;;;;;;;;;5069900;28;19998;-42
2023/03/27 11:54:23;;;;;;;;;;;;;;;;;;5067026;28;19904;-41
2023/03/27 11:56:49;;;;;;;;;;;;;;;;;;5069636;28;19912;-39
2023/03/27 11:59:16;;;;;;;;;;;;;;;;;;5069818;28;19912;-39
2023/03/27 12:01:42;;;;;;;;;;;;;;;;;;5067062;28;20453;-40
2023/03/27 12:04:09;;;;;;;;;;;;;;;;;;5064942;28;20385;-40
2023/03/27 12:06:35;;;;;;;;;;;;;;;;;;5070417;28;19987;-39
2023/03/27 12:09:01;;;;;;;;;;;;;;;;;;5068820;28;19914;-42
2023/03/27 12:11:28;;;;;;;;;;;;;;;;;;5070121;28;19904;-42
2023/03/27 12:13:54;;;;;;;;;;;;;;;;;;5064999;28;20374;-40
2023/03/27 12:16:21;;;;;;;;;;;;;;;;;;5070269;28;19908;-40
2023/03/27 12:18:47;;;;;;;;;;;;;;;;;;5068357;28;19953;-40
2023/03/27 12:21:13;;;;;;;;;;;;;;;;;;5070272;28;20402;-39
2023/03/27 12:23:40;;;;;;;;;;;;;;;;;;5064323;28;19908;-39
2023/03/27 12:26:06;;;;;;;;;;;;;;;;;;5068195;28;19904;-42
2023/03/27 12:28:33;;;;;;;;;;;;;;;;;;5070867;28;19943;-42
2023/03/27 12:30:59;;;;;;;;;;;;;;;;;;5057318;28;19909;-41
2023/03/27 12:33:26;;;;;;;;;;;;;;;;;;5043340;28;20110;-41
2023/03/27 12:35:52;;;;;;;;;;;;;;;;;;5051142;28;20262;-40
2023/03/27 12:38:19;;;;;;;;;;;;;;;;;;5051427;28;20324;-39
2023/03/27 12:40:45;;;;;;;;;;;;;;;;;;5051404;28;20061;-39
2023/03/27 12:43:12;;;;;;;;;;;;;;;;;;5051767;28;19909;-39
2023/03/27 12:45:38;;;;;;;;;;;;;;;;;;5051545;28;19987;-39
2023/03/27 12:48:05;;;;;;;;;;;;;;;;;;5033714;28;20305;-39
2023/03/27 12:50:32;;;;;;;;;;;;;;;;;;5051700;28;19909;-39
2023/03/27 12:52:58;;;;;;;;;;;;;;;;;;5051459;28;19905;-39
2023/03/27 12:55:24;;;;;;;;;;;;;;;;;;5033678;28;19919;-39
2023/03/27 12:57:51;;;;;;;;;;;;;;;;;;5054883;28;19905;-39
2023/03/27 13:00:17;;;;;;;;;;;;;;;;;;5055386;28;19948;-40
2023/03/27 13:02:44;;;;;;;;;;;;;;;;;;5055297;28;19923;-39
2023/03/27 13:05:11;;;;;;;;;;;;;;;;;;5055085;28;19917;-39
2023/03/27 13:07:38;;;;;;;;;;;;;;;;;;5055011;28;19951;-39
2023/03/27 13:10:04;;;;;;;;;;;;;;;;;;5055219;28;19909;-39
2023/03/27 13:12:31;;;;;;;;;;;;;;;;;;5055067;28;20447;-39
2023/03/27 13:14:57;;;;;;;;;;;;;;;;;;5055176;28;19912;-39
2023/03/27 13:17:23;;;;;;;;;;;;;;;;;;5054895;28;19905;-39
2023/03/27 13:19:49;;;;;;;;;;;;;;;;;;5055022;28;19909;-39
2023/03/27 13:22:16;;;;;;;;;;;;;;;;;;5054910;28;19916;-39
2023/03/27 13:24:42;;;;;;;;;;;;;;;;;;5054802;28;20248;-39
2023/03/27 13:27:09;;;;;;;;;;;;;;;;;;5054755;28;19916;-39
2023/03/27 13:29:36;;;;;;;;;;;;;;;;;;5054927;28;19920;-40
2023/03/27 13:32:02;;;;;;;;;;;;;;;;;;5054820;28;19915;-39
2023/03/27 13:34:28;;;;;;;;;;;;;;;;;;5036679;28;19909;-39
2023/03/27 13:36:55;;;;;;;;;;;;;;;;;;5054657;28;19944;-39
2023/03/27 13:39:23;;;;;;;;;;;;;;;;;;5054372;28;19924;-39
2023/03/27 13:41:50;;;;;;;;;;;;;;;;;;5054515;28;20291;-40
2023/03/27 13:44:17;;;;;;;;;;;;;;;;;;5054523;28;20333;-39
2023/03/27 13:46:43;;;;;;;;;;;;;;;;;;5054486;28;19974;-39
2023/03/27 13:49:10;;;;;;;;;;;;;;;;;;5054547;28;19916;-39
2023/03/27 13:51:36;;;;;;;;;;;;;;;;;;5054433;28;19913;-39
2023/03/27 13:54:03;;;;;;;;;;;;;;;;;;5054420;28;19999;-39
2023/03/27 13:56:29;;;;;;;;;;;;;;;;;;5054272;28;19967;-39
2023/03/27 13:58:56;;;;;;;;;;;;;;;;;;5054258;28;20003;-39
2023/03/27 14:01:24;;;;;;;;;;;;;;;;;;5054061;28;20570;-39
2023/03/27 14:03:51;;;;;;;;;;;;;;;;;;5054240;28;19909;-39
2023/03/27 14:06:19;;;;;;;;;;;;;;;;;;5053899;28;19919;-40
2023/03/27 14:08:45;;;;;;;;;;;;;;;;;;5053872;28;19924;-39
2023/03/27 14:11:13;;;;;;;;;;;;;;;;;;5054199;28;19965;-39
2023/03/27 14:13:39;;;;;;;;;;;;;;;;;;5053994;28;19909;-39
2023/03/27 14:16:06;;;;;;;;;;;;;;;;;;5053925;28;19943;-39
2023/03/27 14:18:32;;;;;;;;;;;;;;;;;;5053998;28;20041;-39
2023/03/27 14:20:59;;;;;;;;;;;;;;;;;;5053768;28;19917;-39
2023/03/27 14:23:27;;;;;;;;;;;;;;;;;;5053863;28;19908;-39
2023/03/27 14:25:53;;;;;;;;;;;;;;;;;;5053558;28;19909;-39
2023/03/27 14:28:20;;;;;;;;;;;;;;;;;;5053854;28;19913;-39
2023/03/27 14:30:46;;;;;;;;;;;;;;;;;;5053755;28;19908;-39
2023/03/27 14:33:14;;;;;;;;;;;;;;;;;;5053777;28;19913;-39
2023/03/27 14:35:41;;;;;;;;;;;;;;;;;;5053355;28;19915;-39
2023/03/27 14:38:07;;;;;;;;;;;;;;;;;;5053381;28;19921;-39
2023/03/27 14:40:34;;;;;;;;;;;;;;;;;;5053295;28;20289;-39
2023/03/27 14:43:00;;;;;;;;;;;;;;;;;;5053516;28;20286;-39
2023/03/27 14:45:28;;;;;;;;;;;;;;;;;;5053378;28;19951;-39
2023/03/27 14:47:55;;;;;;;;;;;;;;;;;;5053218;28;19934;-39
2023/03/27 14:50:22;;;;;;;;;;;;;;;;;;5053185;28;19916;-39
2023/03/27 14:52:48;;;;;;;;;;;;;;;;;;5053257;28;20378;-39
2023/03/27 14:55:16;;;;;;;;;;;;;;;;;;5053123;28;19913;-39
2023/03/27 14:57:43;;;;;;;;;;;;;;;;;;5052929;28;19912;-39
2023/03/27 15:00:10;;;;;;;;;;;;;;;;;;5053124;28;19908;-39
2023/03/27 15:02:38;;;;;;;;;;;;;;;;;;5053035;28;19967;-39
2023/03/27 15:05:04;;;;;;;;;;;;;;;;;;5053091;28;19913;-39
2023/03/27 15:07:32;;;;;;;;;;;;;;;;;;5052959;28;19908;-39
2023/03/27 15:09:58;;;;;;;;;;;;;;;;;;5052841;28;19913;-39
2023/03/27 15:12:25;;;;;;;;;;;;;;;;;;5052931;28;19970;-39
2023/03/27 15:14:52;;;;;;;;;;;;;;;;;;5052846;28;20316;-39
2023/03/27 15:17:19;;;;;;;;;;;;;;;;;;5052526;28;19913;-38
2023/03/27 15:19:47;;;;;;;;;;;;;;;;;;5052274;28;19931;-39
2023/03/27 15:22:13;;;;;;;;;;;;;;;;;;5052716;28;19927;-38
2023/03/27 15:24:40;;;;;;;;;;;;;;;;;;5052710;28;19909;-38
2023/03/27 15:27:06;;;;;;;;;;;;;;;;;;5052595;28;19909;-39
2023/03/27 15:29:32;;;;;;;;;;;;;;;;;;5052654;28;19912;-38
2023/03/27 15:32:00;;;;;;;;;;;;;;;;;;5052470;28;19912;-39
2023/03/27 15:34:32;;;;;;;;;;;;;;;;;;5052408;28;20345;-38
2023/03/27 15:36:59;;;;;;;;;;;;;;;;;;5052137;28;20336;-38
2023/03/27 15:39:25;;;;;;;;;;;;;;;;;;5052192;28;20058;-39
2023/03/27 15:41:51;;;;;;;;;;;;;;;;;;5052398;28;19916;-39
2023/03/27 15:44:18;;;;;;;;;;;;;;;;;;5052249;28;20285;-39
2023/03/27 15:46:45;;;;;;;;;;;;;;;;;;5052157;28;19917;-39
2023/03/27 15:49:12;;;;;;;;;;;;;;;;;;5052194;28;19913;-38
2023/03/27 15:51:40;;;;;;;;;;;;;;;;;;5052323;28;19918;-39
2023/03/27 15:54:07;;;;;;;;;;;;;;;;;;5052041;28;20007;-39
2023/03/27 15:56:33;;;;;;;;;;;;;;;;;;5051879;28;19909;-39
2023/03/27 15:59:00;;;;;;;;;;;;;;;;;;5052187;28;19912;-39
2023/03/27 16:01:26;;;;;;;;;;;;;;;;;;5052041;28;19916;-38
2023/03/27 16:03:52;;;;;;;;;;;;;;;;;;5051917;28;19995;-38
2023/03/27 16:06:19;;;;;;;;;;;;;;;;;;5051968;28;19909;-39
2023/03/27 16:08:46;;;;;;;;;;;;;;;;;;5052280;28;19909;-39
2023/03/27 16:11:13;;;;;;;;;;;;;;;;;;5051811;28;19912;-39
2023/03/27 16:13:39;;;;;;;;;;;;;;;;;;5051962;28;19909;-39
2023/03/27 16:16:05;;;;;;;;;;;;;;;;;;5051964;28;20436;-39
2023/03/27 16:18:32;;;;;;;;;;;;;;;;;;5052060;28;20377;-38
2023/03/27 16:21:00;;;;;;;;;;;;;;;;;;5051816;28;19917;-39
2023/03/27 16:23:27;;;;;;;;;;;;;;;;;;5051913;28;19915;-39
2023/03/27 16:25:53;;;;;;;;;;;;;;;;;;5051820;28;20007;-39
2023/03/27 16:28:20;;;;;;;;;;;;;;;;;;5051867;28;19935;-39
2023/03/27 16:30:47;;;;;;;;;;;;;;;;;;5051852;28;19999;-39
2023/03/27 16:33:13;;;;;;;;;;;;;;;;;;5055939;28;19909;-38
2023/03/27 16:35:40;;;;;;;;;;;;;;;;;;5055838;28;19931;-39
2023/03/27 16:38:06;;;;;;;;;;;;;;;;;;5055757;28;20007;-39
2023/03/27 16:40:32;;;;;;;;;;;;;;;;;;5055830;28;19947;-39
2023/03/27 16:42:59;;;;;;;;;;;;;;;;;;5055572;28;19924;-39